This is the latest recevied weather packets stored in our database for station/object HP3ICC-23. If no packets are shown the sender has not sent any weather packets the latest 10 day(s).
| Time | Temp. | Humidity | Pressure | Rain* | Wind** | Luminosity | Snow |
|---|---|---|---|---|---|---|---|
| 1777764068 | 15.56° C | 83% | 1011 hPa | 2.79 mm | - | - | - |
| 1777762927 | 14.44° C | 82% | 1012 hPa | 0.25 mm | - | - | - |
| 1777762867 | 14.44° C | 82% | 1012 hPa | 0.25 mm | - | - | - |
| 1777761727 | 15° C | 82% | 1011 hPa | 0 mm | - | - | - |
| 1777761666 | 15° C | 82% | 1011 hPa | 0 mm | - | - | - |
| 1777760526 | 15.56° C | 82% | 1009 hPa | 0.25 mm | - | - | - |
| 1777760466 | 15.56° C | 82% | 1009 hPa | 0.25 mm | - | - | - |
| 1777759325 | 14.44° C | 85% | 1011 hPa | 0 mm | - | - | - |
| 1777759265 | 14.44° C | 85% | 1011 hPa | 0 mm | - | - | - |
| 1777758125 | 15° C | 85% | 1011 hPa | 0 mm | - | - | - |
| 1777758064 | 15° C | 85% | 1011 hPa | 0 mm | - | - | - |
| 1777756924 | 15.56° C | 85% | 1010 hPa | 0 mm | - | - | - |
| 1777756864 | 15.56° C | 85% | 1010 hPa | 0 mm | - | - | - |
| 1777755724 | 16.11° C | 85% | 1011 hPa | 0 mm | - | - | - |
| 1777755664 | 16.11° C | 85% | 1011 hPa | 0 mm | - | - | - |
| 1777754523 | 16.67° C | 87% | 1011 hPa | 0.76 mm | - | - | - |
| 1777754463 | 16.67° C | 87% | 1011 hPa | 0.76 mm | - | - | - |
| 1777753323 | 15.56° C | 86% | 1010 hPa | 0 mm | - | - | - |
| 1777753263 | 15.56° C | 86% | 1010 hPa | 0 mm | - | - | - |
| 1777752122 | 16.11° C | 86% | 1011 hPa | 0.76 mm | - | - | - |
| 1777752062 | 16.11° C | 86% | 1011 hPa | 0.76 mm | - | - | - |
| 1777750922 | 16.67° C | 86% | 1011 hPa | 3.05 mm | - | - | - |
| 1777750861 | 16.67° C | 86% | 1011 hPa | 3.05 mm | - | - | - |
| 1777749721 | 15.56° C | 90% | 1010 hPa | 0 mm | - | - | - |
| 1777749660 | 15.56° C | 90% | 1010 hPa | 0 mm | - | - | - |
* Rain latest hour (hover to see other rain measurements)
** Current wind speed in m/s (hover to see current wind gust speed)